LiveATC.Net - Listen to live air traffic control over the Internet!


ICAO: KLHZ  IATA: LHZ   Airport: Triangle North Executive Airport
City: Louisburg   State/Province: North Carolina
Country: United States   Continent: North America
KLHZ METAR Weather: KLHZ 251220Z AUTO 00000KT 10SM CLR 18/13 A2991 RMK AO2
KLHZ Flight Activity (FlightAware)
KLHZ Airport Info   (iFlightPlanner)
KLHZ VFR Sectional Chart   (iFlightPlanner) 
KLHZ IFR Low Chart   (iFlightPlanner) 

KLHZ CTAF
Feed Status: DOWN
Last heard on: 2019-04-24 18:54:02 (0 days 18 hours 5 minutes ago)
KLHZ CTAF Audio Archives
FacilityFrequency
Louisburg CTAF/UNICOM123.000
Louisburg GCO135.075
Raleigh Approach (East)125.300

NOTICE

Unauthorized use prohibited. See LiveATC.net Terms of Service


Find LiveATC Audio Streams


Airport/ARTCC Code

Frequency Search
(e.g., 124.400, 128.75)
Site-wide search
 


Browse LiveATC Feeds
Top 50 LiveATC Feeds
LiveATC Feed Map
Bad Weather Areas

LiveATC FAQ
Offer LiveATC feed
Contact LiveATC.net
Press Inquiries

LiveATC on iPhone
LiveATC on Android

Windows Phone
Windows 8/10

LiveATC Mobile
(Mobile browser)

ATC Audio Archives
Interesting Recordings

LiveATC Forums


Home Page
About LiveATC.net
Make a Donation
Terms of Use
Privacy Policy

Canadian Air Freqs

AIRMETs/SIGMETs

FAA Airport Status
Nat'l Airspace Status
Arrival Demand Charts


Server Software By:
Icecast.org
Liquidsoap